sensor_id;sensor_type;location;lat;lon;timestamp;temperature;humidity
66835;HTU21D;53743;51.100;5.874;2024-03-07T00:00:12;7.93;83.46
66835;HTU21D;53743;51.100;5.874;2024-03-07T00:01:18;7.93;83.43
66835;HTU21D;53743;51.100;5.874;2024-03-07T00:02:21;7.92;83.38
66835;HTU21D;53743;51.100;5.874;2024-03-07T00:03:24;7.90;83.40
66835;HTU21D;53743;51.100;5.874;2024-03-07T00:04:26;7.89;83.44
66835;HTU21D;53743;51.100;5.874;2024-03-07T00:05:28;7.88;83.53
66835;HTU21D;53743;51.100;5.874;2024-03-07T00:06:30;7.87;83.56
66835;HTU21D;53743;51.100;5.874;2024-03-07T00:07:34;7.87;83.52
66835;HTU21D;53743;51.100;5.874;2024-03-07T00:08:35;7.87;83.68
66835;HTU21D;53743;51.100;5.874;2024-03-07T00:09:37;7.85;83.50
66835;HTU21D;53743;51.100;5.874;2024-03-07T00:10:39;7.83;83.68
66835;HTU21D;53743;51.100;5.874;2024-03-07T00:11:41;7.82;83.75
66835;HTU21D;53743;51.100;5.874;2024-03-07T00:12:44;7.81;83.75
66835;HTU21D;53743;51.100;5.874;2024-03-07T00:13:45;7.78;83.84
66835;HTU21D;53743;51.100;5.874;2024-03-07T00:14:47;7.78;83.90
66835;HTU21D;53743;51.100;5.874;2024-03-07T00:15:48;7.78;83.95
66835;HTU21D;53743;51.100;5.874;2024-03-07T00:16:50;7.77;84.00
66835;HTU21D;53743;51.100;5.874;2024-03-07T00:17:51;7.75;83.97
66835;HTU21D;53743;51.100;5.874;2024-03-07T00:18:51;7.75;83.97
66835;HTU21D;53743;51.100;5.874;2024-03-07T00:19:55;7.76;84.10
66835;HTU21D;53743;51.100;5.874;2024-03-07T00:20:56;7.75;84.11
66835;HTU21D;53743;51.100;5.874;2024-03-07T00:21:59;7.73;84.13
66835;HTU21D;53743;51.100;5.874;2024-03-07T00:23:00;7.73;84.28
66835;HTU21D;53743;51.100;5.874;2024-03-07T00:24:04;7.71;84.29
66835;HTU21D;53743;51.100;5.874;2024-03-07T00:25:06;7.70;84.29
66835;HTU21D;53743;51.100;5.874;2024-03-07T00:26:09;7.68;84.31
66835;HTU21D;53743;51.100;5.874;2024-03-07T00:27:11;7.67;84.35
66835;HTU21D;53743;51.100;5.874;2024-03-07T00:28:15;7.65;84.42
66835;HTU21D;53743;51.100;5.874;2024-03-07T00:29:17;7.63;84.38
66835;HTU21D;53743;51.100;5.874;2024-03-07T00:30:20;7.63;84.39
66835;HTU21D;53743;51.100;5.874;2024-03-07T00:31:21;7.62;84.45
66835;HTU21D;53743;51.100;5.874;2024-03-07T00:32:23;7.61;84.47
66835;HTU21D;53743;51.100;5.874;2024-03-07T00:33:24;7.59;84.50
66835;HTU21D;53743;51.100;5.874;2024-03-07T00:34:26;7.58;84.61
66835;HTU21D;53743;51.100;5.874;2024-03-07T00:35:29;7.58;84.53
66835;HTU21D;53743;51.100;5.874;2024-03-07T00:36:31;7.58;84.63
66835;HTU21D;53743;51.100;5.874;2024-03-07T00:37:34;7.56;84.68
66835;HTU21D;53743;51.100;5.874;2024-03-07T00:38:36;7.53;84.73
66835;HTU21D;53743;51.100;5.874;2024-03-07T00:39:37;7.50;84.93
66835;HTU21D;53743;51.100;5.874;2024-03-07T00:40:39;7.48;84.74
66835;HTU21D;53743;51.100;5.874;2024-03-07T00:41:40;7.46;84.73
66835;HTU21D;53743;51.100;5.874;2024-03-07T00:42:42;7.45;84.85
66835;HTU21D;53743;51.100;5.874;2024-03-07T00:43:43;7.45;84.95
66835;HTU21D;53743;51.100;5.874;2024-03-07T00:44:45;7.44;84.94
66835;HTU21D;53743;51.100;5.874;2024-03-07T00:45:47;7.42;84.98
66835;HTU21D;53743;51.100;5.874;2024-03-07T00:46:50;7.43;84.90
66835;HTU21D;53743;51.100;5.874;2024-03-07T00:47:51;7.41;85.01
66835;HTU21D;53743;51.100;5.874;2024-03-07T00:48:53;7.41;84.88
66835;HTU21D;53743;51.100;5.874;2024-03-07T00:49:54;7.39;84.95
66835;HTU21D;53743;51.100;5.874;2024-03-07T00:50:57;7.37;85.20
66835;HTU21D;53743;51.100;5.874;2024-03-07T00:51:59;7.32;85.38
66835;HTU21D;53743;51.100;5.874;2024-03-07T00:53:00;7.30;85.40
66835;HTU21D;53743;51.100;5.874;2024-03-07T00:54:02;7.28;85.49
66835;HTU21D;53743;51.100;5.874;2024-03-07T00:55:04;7.27;85.61
66835;HTU21D;53743;51.100;5.874;2024-03-07T00:56:08;7.26;85.71
66835;HTU21D;53743;51.100;5.874;2024-03-07T00:57:09;7.27;85.60
66835;HTU21D;53743;51.100;5.874;2024-03-07T00:58:11;7.28;85.68
66835;HTU21D;53743;51.100;5.874;2024-03-07T00:59:13;7.27;85.73
66835;HTU21D;53743;51.100;5.874;2024-03-07T01:00:16;7.26;85.86
66835;HTU21D;53743;51.100;5.874;2024-03-07T01:01:20;7.22;85.93
66835;HTU21D;53743;51.100;5.874;2024-03-07T01:02:22;7.19;86.25
66835;HTU21D;53743;51.100;5.874;2024-03-07T01:03:23;7.20;86.13
66835;HTU21D;53743;51.100;5.874;2024-03-07T01:04:26;7.17;86.17
66835;HTU21D;53743;51.100;5.874;2024-03-07T01:05:31;7.17;86.29
66835;HTU21D;53743;51.100;5.874;2024-03-07T01:06:34;7.17;86.26
66835;HTU21D;53743;51.100;5.874;2024-03-07T01:07:36;7.16;86.29
66835;HTU21D;53743;51.100;5.874;2024-03-07T01:08:39;7.15;86.29
66835;HTU21D;53743;51.100;5.874;2024-03-07T01:09:40;7.14;86.16
66835;HTU21D;53743;51.100;5.874;2024-03-07T01:10:42;7.12;86.20
66835;HTU21D;53743;51.100;5.874;2024-03-07T01:11:44;7.10;86.23
66835;HTU21D;53743;51.100;5.874;2024-03-07T01:12:46;7.08;86.38
66835;HTU21D;53743;51.100;5.874;2024-03-07T01:13:50;7.07;86.28
66835;HTU21D;53743;51.100;5.874;2024-03-07T01:14:52;7.02;86.59
66835;HTU21D;53743;51.100;5.874;2024-03-07T01:15:53;7.01;86.56
66835;HTU21D;53743;51.100;5.874;2024-03-07T01:16:55;7.00;86.68
66835;HTU21D;53743;51.100;5.874;2024-03-07T01:17:56;6.98;86.70
66835;HTU21D;53743;51.100;5.874;2024-03-07T01:18:58;6.98;86.88
66835;HTU21D;53743;51.100;5.874;2024-03-07T01:19:59;6.95;86.92
66835;HTU21D;53743;51.100;5.874;2024-03-07T01:21:04;6.96;87.05
66835;HTU21D;53743;51.100;5.874;2024-03-07T01:22:07;6.94;87.06
66835;HTU21D;53743;51.100;5.874;2024-03-07T01:23:09;6.96;87.15
66835;HTU21D;53743;51.100;5.874;2024-03-07T01:24:11;6.94;87.09
66835;HTU21D;53743;51.100;5.874;2024-03-07T01:25:13;6.94;87.09
66835;HTU21D;53743;51.100;5.874;2024-03-07T01:26:14;6.93;87.22
66835;HTU21D;53743;51.100;5.874;2024-03-07T01:27:16;6.90;87.23
66835;HTU21D;53743;51.100;5.874;2024-03-07T01:28:18;6.91;87.25
66835;HTU21D;53743;51.100;5.874;2024-03-07T01:29:20;6.90;87.26
66835;HTU21D;53743;51.100;5.874;2024-03-07T01:30:21;6.90;87.28
66835;HTU21D;53743;51.100;5.874;2024-03-07T01:31:26;6.89;87.42
66835;HTU21D;53743;51.100;5.874;2024-03-07T01:32:27;6.87;87.44
66835;HTU21D;53743;51.100;5.874;2024-03-07T01:33:29;6.87;87.49
66835;HTU21D;53743;51.100;5.874;2024-03-07T01:34:30;6.86;87.44
66835;HTU21D;53743;51.100;5.874;2024-03-07T01:35:32;6.84;87.61
66835;HTU21D;53743;51.100;5.874;2024-03-07T01:36:33;6.84;87.61
66835;HTU21D;53743;51.100;5.874;2024-03-07T01:37:35;6.83;87.59
66835;HTU21D;53743;51.100;5.874;2024-03-07T01:38:37;6.83;87.67
66835;HTU21D;53743;51.100;5.874;2024-03-07T01:39:38;6.82;87.64
66835;HTU21D;53743;51.100;5.874;2024-03-07T01:40:41;6.79;87.79
66835;HTU21D;53743;51.100;5.874;2024-03-07T01:41:42;6.76;87.90
66835;HTU21D;53743;51.100;5.874;2024-03-07T01:42:47;6.74;88.12
66835;HTU21D;53743;51.100;5.874;2024-03-07T01:43:48;6.71;88.06
66835;HTU21D;53743;51.100;5.874;2024-03-07T01:44:50;6.70;87.96
66835;HTU21D;53743;51.100;5.874;2024-03-07T01:45:54;6.71;87.96
66835;HTU21D;53743;51.100;5.874;2024-03-07T01:46:59;6.69;88.01
66835;HTU21D;53743;51.100;5.874;2024-03-07T01:48:04;6.67;88.17
66835;HTU21D;53743;51.100;5.874;2024-03-07T01:49:07;6.66;88.09
66835;HTU21D;53743;51.100;5.874;2024-03-07T01:50:09;6.65;88.27
66835;HTU21D;53743;51.100;5.874;2024-03-07T01:51:11;6.64;88.19
66835;HTU21D;53743;51.100;5.874;2024-03-07T01:52:13;6.63;88.56
66835;HTU21D;53743;51.100;5.874;2024-03-07T01:53:17;6.65;88.31
66835;HTU21D;53743;51.100;5.874;2024-03-07T01:54:18;6.65;88.51
66835;HTU21D;53743;51.100;5.874;2024-03-07T01:55:21;6.67;88.14
66835;HTU21D;53743;51.100;5.874;2024-03-07T01:56:23;6.69;87.95
66835;HTU21D;53743;51.100;5.874;2024-03-07T01:57:25;6.69;88.01
66835;HTU21D;53743;51.100;5.874;2024-03-07T01:58:29;6.68;87.98
66835;HTU21D;53743;51.100;5.874;2024-03-07T01:59:33;6.66;88.22
66835;HTU21D;53743;51.100;5.874;2024-03-07T02:00:35;6.63;88.22
66835;HTU21D;53743;51.100;5.874;2024-03-07T02:01:37;6.60;88.37
66835;HTU21D;53743;51.100;5.874;2024-03-07T02:02:40;6.57;88.47
66835;HTU21D;53743;51.100;5.874;2024-03-07T02:03:41;6.53;88.63
66835;HTU21D;53743;51.100;5.874;2024-03-07T02:04:43;6.54;88.60
66835;HTU21D;53743;51.100;5.874;2024-03-07T02:05:45;6.52;88.64
66835;HTU21D;53743;51.100;5.874;2024-03-07T02:06:47;6.49;88.76
66835;HTU21D;53743;51.100;5.874;2024-03-07T02:07:48;6.45;88.92
66835;HTU21D;53743;51.100;5.874;2024-03-07T02:08:52;6.45;89.01
66835;HTU21D;53743;51.100;5.874;2024-03-07T02:09:59;6.43;89.12
66835;HTU21D;53743;51.100;5.874;2024-03-07T02:11:01;6.43;89.17
66835;HTU21D;53743;51.100;5.874;2024-03-07T02:12:03;6.41;89.31
66835;HTU21D;53743;51.100;5.874;2024-03-07T02:13:05;6.39;89.38
66835;HTU21D;53743;51.100;5.874;2024-03-07T02:14:06;6.38;89.49
66835;HTU21D;53743;51.100;5.874;2024-03-07T02:15:08;6.37;89.69
66835;HTU21D;53743;51.100;5.874;2024-03-07T02:16:11;6.36;89.74
66835;HTU21D;53743;51.100;5.874;2024-03-07T02:17:12;6.35;89.76
66835;HTU21D;53743;51.100;5.874;2024-03-07T02:18:13;6.35;89.69
66835;HTU21D;53743;51.100;5.874;2024-03-07T02:19:15;6.33;89.86
66835;HTU21D;53743;51.100;5.874;2024-03-07T02:20:16;6.33;89.73
66835;HTU21D;53743;51.100;5.874;2024-03-07T02:21:19;6.34;89.66
66835;HTU21D;53743;51.100;5.874;2024-03-07T02:22:21;6.30;89.73
66835;HTU21D;53743;51.100;5.874;2024-03-07T02:23:22;6.30;89.66
66835;HTU21D;53743;51.100;5.874;2024-03-07T02:24:24;6.30;89.66
66835;HTU21D;53743;51.100;5.874;2024-03-07T02:25:25;6.30;89.67
66835;HTU21D;53743;51.100;5.874;2024-03-07T02:26:26;6.30;89.54
66835;HTU21D;53743;51.100;5.874;2024-03-07T02:27:28;6.29;89.58
66835;HTU21D;53743;51.100;5.874;2024-03-07T02:28:30;6.29;89.66
66835;HTU21D;53743;51.100;5.874;2024-03-07T02:29:32;6.28;89.76
66835;HTU21D;53743;51.100;5.874;2024-03-07T02:30:33;6.29;89.96
66835;HTU21D;53743;51.100;5.874;2024-03-07T02:31:34;6.29;89.82
66835;HTU21D;53743;51.100;5.874;2024-03-07T02:32:37;6.27;89.82
66835;HTU21D;53743;51.100;5.874;2024-03-07T02:33:38;6.28;89.96
66835;HTU21D;53743;51.100;5.874;2024-03-07T02:34:40;6.26;89.82
66835;HTU21D;53743;51.100;5.874;2024-03-07T02:35:41;6.26;89.97
66835;HTU21D;53743;51.100;5.874;2024-03-07T02:36:45;6.25;90.08
66835;HTU21D;53743;51.100;5.874;2024-03-07T02:37:46;6.24;90.13
66835;HTU21D;53743;51.100;5.874;2024-03-07T02:38:48;6.22;90.22
66835;HTU21D;53743;51.100;5.874;2024-03-07T02:39:49;6.20;90.31
66835;HTU21D;53743;51.100;5.874;2024-03-07T02:40:51;6.22;90.30
66835;HTU21D;53743;51.100;5.874;2024-03-07T02:41:53;6.23;90.29
66835;HTU21D;53743;51.100;5.874;2024-03-07T02:42:55;6.25;90.28
66835;HTU21D;53743;51.100;5.874;2024-03-07T02:43:56;6.23;90.35
66835;HTU21D;53743;51.100;5.874;2024-03-07T02:44:58;6.21;90.45
66835;HTU21D;53743;51.100;5.874;2024-03-07T02:45:59;6.22;90.50
66835;HTU21D;53743;51.100;5.874;2024-03-07T02:47:01;6.20;0.00
66835;HTU21D;53743;51.100;5.874;2024-03-07T02:48:05;6.13;90.70
66835;HTU21D;53743;51.100;5.874;2024-03-07T02:49:09;6.10;90.79
66835;HTU21D;53743;51.100;5.874;2024-03-07T02:50:11;6.09;91.03
66835;HTU21D;53743;51.100;5.874;2024-03-07T02:51:13;6.08;91.03
66835;HTU21D;53743;51.100;5.874;2024-03-07T02:52:15;6.06;91.04
66835;HTU21D;53743;51.100;5.874;2024-03-07T02:53:17;6.05;91.22
66835;HTU21D;53743;51.100;5.874;2024-03-07T02:54:18;6.02;91.12
66835;HTU21D;53743;51.100;5.874;2024-03-07T02:55:20;6.00;91.19
66835;HTU21D;53743;51.100;5.874;2024-03-07T02:56:21;6.01;90.82
66835;HTU21D;53743;51.100;5.874;2024-03-07T02:57:22;6.00;90.99
66835;HTU21D;53743;51.100;5.874;2024-03-07T02:58:24;6.01;90.86
66835;HTU21D;53743;51.100;5.874;2024-03-07T02:59:26;5.98;90.93
66835;HTU21D;53743;51.100;5.874;2024-03-07T03:00:28;5.96;90.85
66835;HTU21D;53743;51.100;5.874;2024-03-07T03:01:30;5.95;90.99
66835;HTU21D;53743;51.100;5.874;2024-03-07T03:02:32;5.93;90.97
66835;HTU21D;53743;51.100;5.874;2024-03-07T03:03:33;5.93;91.02
66835;HTU21D;53743;51.100;5.874;2024-03-07T03:04:35;5.93;91.05
66835;HTU21D;53743;51.100;5.874;2024-03-07T03:05:36;5.93;91.15
66835;HTU21D;53743;51.100;5.874;2024-03-07T03:06:39;5.92;91.05
66835;HTU21D;53743;51.100;5.874;2024-03-07T03:07:42;5.92;91.06
66835;HTU21D;53743;51.100;5.874;2024-03-07T03:08:53;5.92;91.04
66835;HTU21D;53743;51.100;5.874;2024-03-07T03:09:54;5.92;91.18
66835;HTU21D;53743;51.100;5.874;2024-03-07T03:10:56;5.93;90.92
66835;HTU21D;53743;51.100;5.874;2024-03-07T03:11:58;5.95;90.95
66835;HTU21D;53743;51.100;5.874;2024-03-07T03:13:01;5.94;91.01
66835;HTU21D;53743;51.100;5.874;2024-03-07T03:14:02;5.93;91.06
66835;HTU21D;53743;51.100;5.874;2024-03-07T03:15:06;5.94;91.08
66835;HTU21D;53743;51.100;5.874;2024-03-07T03:16:08;5.91;91.24
66835;HTU21D;53743;51.100;5.874;2024-03-07T03:17:10;5.92;91.13
66835;HTU21D;53743;51.100;5.874;2024-03-07T03:18:11;5.89;91.16
66835;HTU21D;53743;51.100;5.874;2024-03-07T03:19:14;5.89;91.05
66835;HTU21D;53743;51.100;5.874;2024-03-07T03:20:15;5.86;91.10
66835;HTU21D;53743;51.100;5.874;2024-03-07T03:21:24;5.84;91.29
66835;HTU21D;53743;51.100;5.874;2024-03-07T03:22:26;5.86;91.32
66835;HTU21D;53743;51.100;5.874;2024-03-07T03:23:29;5.89;91.34
66835;HTU21D;53743;51.100;5.874;2024-03-07T03:24:31;5.89;91.31
66835;HTU21D;53743;51.100;5.874;2024-03-07T03:25:32;5.86;91.43
66835;HTU21D;53743;51.100;5.874;2024-03-07T03:26:35;5.85;91.33
66835;HTU21D;53743;51.100;5.874;2024-03-07T03:27:36;5.85;91.46
66835;HTU21D;53743;51.100;5.874;2024-03-07T03:28:39;5.82;91.48
66835;HTU21D;53743;51.100;5.874;2024-03-07T03:29:41;5.80;91.65
66835;HTU21D;53743;51.100;5.874;2024-03-07T03:30:45;5.80;91.82
66835;HTU21D;53743;51.100;5.874;2024-03-07T03:31:47;5.80;91.68
66835;HTU21D;53743;51.100;5.874;2024-03-07T03:32:49;5.77;91.69
66835;HTU21D;53743;51.100;5.874;2024-03-07T03:33:50;5.74;91.76
66835;HTU21D;53743;51.100;5.874;2024-03-07T03:34:52;5.72;91.86
66835;HTU21D;53743;51.100;5.874;2024-03-07T03:35:54;5.69;91.90
66835;HTU21D;53743;51.100;5.874;2024-03-07T03:36:56;5.69;92.24
66835;HTU21D;53743;51.100;5.874;2024-03-07T03:37:57;5.68;92.14
66835;HTU21D;53743;51.100;5.874;2024-03-07T03:39:00;5.67;92.11
66835;HTU21D;53743;51.100;5.874;2024-03-07T03:40:01;5.65;92.16
66835;HTU21D;53743;51.100;5.874;2024-03-07T03:41:05;5.65;92.19
66835;HTU21D;53743;51.100;5.874;2024-03-07T03:42:06;5.64;92.37
66835;HTU21D;53743;51.100;5.874;2024-03-07T03:43:08;5.65;92.46
66835;HTU21D;53743;51.100;5.874;2024-03-07T03:44:09;5.64;92.43
66835;HTU21D;53743;51.100;5.874;2024-03-07T03:45:11;5.62;92.47
66835;HTU21D;53743;51.100;5.874;2024-03-07T03:46:15;5.63;92.50
66835;HTU21D;53743;51.100;5.874;2024-03-07T03:47:17;5.62;92.58
66835;HTU21D;53743;51.100;5.874;2024-03-07T03:48:18;5.63;92.56
66835;HTU21D;53743;51.100;5.874;2024-03-07T03:49:20;5.63;92.61
66835;HTU21D;53743;51.100;5.874;2024-03-07T03:50:21;5.62;92.63
66835;HTU21D;53743;51.100;5.874;2024-03-07T03:51:23;5.62;92.66
66835;HTU21D;53743;51.100;5.874;2024-03-07T03:52:25;5.61;92.67
66835;HTU21D;53743;51.100;5.874;2024-03-07T03:53:29;5.63;92.65
66835;HTU21D;53743;51.100;5.874;2024-03-07T03:54:31;5.62;92.63
66835;HTU21D;53743;51.100;5.874;2024-03-07T03:55:33;5.61;92.72
66835;HTU21D;53743;51.100;5.874;2024-03-07T03:56:34;5.60;92.67
66835;HTU21D;53743;51.100;5.874;2024-03-07T03:57:38;5.61;92.65
66835;HTU21D;53743;51.100;5.874;2024-03-07T03:58:40;5.61;92.65
66835;HTU21D;53743;51.100;5.874;2024-03-07T03:59:43;5.61;92.68
66835;HTU21D;53743;51.100;5.874;2024-03-07T04:00:45;5.61;92.61
66835;HTU21D;53743;51.100;5.874;2024-03-07T04:01:47;5.62;92.55
66835;HTU21D;53743;51.100;5.874;2024-03-07T04:02:48;5.63;92.46
66835;HTU21D;53743;51.100;5.874;2024-03-07T04:03:49;5.64;92.48
66835;HTU21D;53743;51.100;5.874;2024-03-07T04:04:52;5.65;92.29
66835;HTU21D;53743;51.100;5.874;2024-03-07T04:05:54;5.66;92.18
66835;HTU21D;53743;51.100;5.874;2024-03-07T04:06:56;5.66;92.20
66835;HTU21D;53743;51.100;5.874;2024-03-07T04:07:57;5.66;92.08
66835;HTU21D;53743;51.100;5.874;2024-03-07T04:09:00;5.68;92.31
66835;HTU21D;53743;51.100;5.874;2024-03-07T04:10:03;5.68;91.88
66835;HTU21D;53743;51.100;5.874;2024-03-07T04:11:07;5.67;91.76
66835;HTU21D;53743;51.100;5.874;2024-03-07T04:12:10;5.66;92.01
66835;HTU21D;53743;51.100;5.874;2024-03-07T04:13:13;5.67;91.83
66835;HTU21D;53743;51.100;5.874;2024-03-07T04:14:14;5.70;91.72
66835;HTU21D;53743;51.100;5.874;2024-03-07T04:15:17;5.68;91.61
66835;HTU21D;53743;51.100;5.874;2024-03-07T04:16:18;5.67;91.68
66835;HTU21D;53743;51.100;5.874;2024-03-07T04:17:20;5.67;91.78
66835;HTU21D;53743;51.100;5.874;2024-03-07T04:18:22;5.64;91.55
66835;HTU21D;53743;51.100;5.874;2024-03-07T04:19:25;5.63;91.62
66835;HTU21D;53743;51.100;5.874;2024-03-07T04:20:26;5.63;91.74
66835;HTU21D;53743;51.100;5.874;2024-03-07T04:21:28;5.61;91.72
66835;HTU21D;53743;51.100;5.874;2024-03-07T04:22:29;5.60;91.76
66835;HTU21D;53743;51.100;5.874;2024-03-07T04:23:30;5.59;91.88
66835;HTU21D;53743;51.100;5.874;2024-03-07T04:24:32;5.59;91.83
66835;HTU21D;53743;51.100;5.874;2024-03-07T04:25:34;5.59;91.79
66835;HTU21D;53743;51.100;5.874;2024-03-07T04:26:36;5.56;91.85
66835;HTU21D;53743;51.100;5.874;2024-03-07T04:27:38;5.57;91.84
66835;HTU21D;53743;51.100;5.874;2024-03-07T04:28:40;5.55;91.77
66835;HTU21D;53743;51.100;5.874;2024-03-07T04:29:42;5.55;91.66
66835;HTU21D;53743;51.100;5.874;2024-03-07T04:30:43;5.54;91.58
66835;HTU21D;53743;51.100;5.874;2024-03-07T04:31:44;5.54;91.61
66835;HTU21D;53743;51.100;5.874;2024-03-07T04:32:47;5.53;91.53
66835;HTU21D;53743;51.100;5.874;2024-03-07T04:33:48;5.52;91.39
66835;HTU21D;53743;51.100;5.874;2024-03-07T04:34:51;5.50;91.50
66835;HTU21D;53743;51.100;5.874;2024-03-07T04:35:52;5.50;91.51
66835;HTU21D;53743;51.100;5.874;2024-03-07T04:36:55;5.47;91.41
66835;HTU21D;53743;51.100;5.874;2024-03-07T04:37:57;5.46;0.00
66835;HTU21D;53743;51.100;5.874;2024-03-07T04:38:58;5.45;91.57
66835;HTU21D;53743;51.100;5.874;2024-03-07T04:40:00;5.46;91.43
66835;HTU21D;53743;51.100;5.874;2024-03-07T04:41:03;5.46;91.25
66835;HTU21D;53743;51.100;5.874;2024-03-07T04:42:07;5.43;91.17
66835;HTU21D;53743;51.100;5.874;2024-03-07T04:43:08;5.43;91.10
66835;HTU21D;53743;51.100;5.874;2024-03-07T04:44:10;5.45;91.07
66835;HTU21D;53743;51.100;5.874;2024-03-07T04:45:13;5.43;90.97
66835;HTU21D;53743;51.100;5.874;2024-03-07T04:46:15;5.43;90.94
66835;HTU21D;53743;51.100;5.874;2024-03-07T04:47:16;5.42;90.89
66835;HTU21D;53743;51.100;5.874;2024-03-07T04:48:18;5.42;90.94
66835;HTU21D;53743;51.100;5.874;2024-03-07T04:49:19;5.43;90.72
66835;HTU21D;53743;51.100;5.874;2024-03-07T04:50:21;5.40;90.63
66835;HTU21D;53743;51.100;5.874;2024-03-07T04:51:22;5.39;90.71
66835;HTU21D;53743;51.100;5.874;2024-03-07T04:52:24;5.38;90.73
66835;HTU21D;53743;51.100;5.874;2024-03-07T04:53:25;5.38;90.74
66835;HTU21D;53743;51.100;5.874;2024-03-07T04:54:29;5.38;90.57
66835;HTU21D;53743;51.100;5.874;2024-03-07T04:55:31;5.36;90.62
66835;HTU21D;53743;51.100;5.874;2024-03-07T04:56:34;5.35;90.56
66835;HTU21D;53743;51.100;5.874;2024-03-07T04:57:35;5.35;90.63
66835;HTU21D;53743;51.100;5.874;2024-03-07T04:58:37;5.34;90.62
66835;HTU21D;53743;51.100;5.874;2024-03-07T04:59:39;0.00;90.65
66835;HTU21D;53743;51.100;5.874;2024-03-07T05:00:41;5.35;90.65
66835;HTU21D;53743;51.100;5.874;2024-03-07T05:01:44;5.34;90.69
66835;HTU21D;53743;51.100;5.874;2024-03-07T05:02:47;5.32;90.79
66835;HTU21D;53743;51.100;5.874;2024-03-07T05:03:50;5.33;90.84
66835;HTU21D;53743;51.100;5.874;2024-03-07T05:04:52;5.33;90.83
66835;HTU21D;53743;51.100;5.874;2024-03-07T05:05:53;5.31;90.86
66835;HTU21D;53743;51.100;5.874;2024-03-07T05:06:55;5.32;90.92
66835;HTU21D;53743;51.100;5.874;2024-03-07T05:07:58;5.32;90.86
66835;HTU21D;53743;51.100;5.874;2024-03-07T05:09:00;5.32;90.78
66835;HTU21D;53743;51.100;5.874;2024-03-07T05:10:02;5.32;90.69
66835;HTU21D;53743;51.100;5.874;2024-03-07T05:11:05;5.33;90.56
66835;HTU21D;53743;51.100;5.874;2024-03-07T05:12:07;5.32;90.50
66835;HTU21D;53743;51.100;5.874;2024-03-07T05:13:09;5.34;90.55
66835;HTU21D;53743;51.100;5.874;2024-03-07T05:14:11;5.32;90.57
66835;HTU21D;53743;51.100;5.874;2024-03-07T05:15:13;5.33;90.59
66835;HTU21D;53743;51.100;5.874;2024-03-07T05:16:14;5.32;90.64
66835;HTU21D;53743;51.100;5.874;2024-03-07T05:17:18;5.33;90.66
66835;HTU21D;53743;51.100;5.874;2024-03-07T05:18:20;5.32;90.63
66835;HTU21D;53743;51.100;5.874;2024-03-07T05:19:22;5.32;90.63
66835;HTU21D;53743;51.100;5.874;2024-03-07T05:20:23;5.32;90.60
66835;HTU21D;53743;51.100;5.874;2024-03-07T05:21:25;5.32;90.79
66835;HTU21D;53743;51.100;5.874;2024-03-07T05:22:38;5.31;90.70
66835;HTU21D;53743;51.100;5.874;2024-03-07T05:23:41;5.31;90.83
66835;HTU21D;53743;51.100;5.874;2024-03-07T05:24:43;5.28;90.77
66835;HTU21D;53743;51.100;5.874;2024-03-07T05:25:44;5.27;90.92
66835;HTU21D;53743;51.100;5.874;2024-03-07T05:26:46;5.26;90.97
66835;HTU21D;53743;51.100;5.874;2024-03-07T05:27:48;5.26;90.92
66835;HTU21D;53743;51.100;5.874;2024-03-07T05:28:51;5.26;91.02
66835;HTU21D;53743;51.100;5.874;2024-03-07T05:29:52;5.24;90.98
66835;HTU21D;53743;51.100;5.874;2024-03-07T05:30:55;5.24;90.95
66835;HTU21D;53743;51.100;5.874;2024-03-07T05:32:20;5.22;91.05
66835;HTU21D;53743;51.100;5.874;2024-03-07T05:33:23;5.22;91.05
66835;HTU21D;53743;51.100;5.874;2024-03-07T05:34:24;5.22;90.99
66835;HTU21D;53743;51.100;5.874;2024-03-07T05:35:28;5.21;90.94
66835;HTU21D;53743;51.100;5.874;2024-03-07T05:36:30;5.22;90.89
66835;HTU21D;53743;51.100;5.874;2024-03-07T05:37:33;5.21;90.96
66835;HTU21D;53743;51.100;5.874;2024-03-07T05:38:34;5.21;90.88
66835;HTU21D;53743;51.100;5.874;2024-03-07T05:39:36;5.19;90.91
66835;HTU21D;53743;51.100;5.874;2024-03-07T05:40:38;5.20;90.95
66835;HTU21D;53743;51.100;5.874;2024-03-07T05:41:39;5.20;91.10
66835;HTU21D;53743;51.100;5.874;2024-03-07T05:42:42;5.19;91.05
66835;HTU21D;53743;51.100;5.874;2024-03-07T05:43:44;5.18;91.23
66835;HTU21D;53743;51.100;5.874;2024-03-07T05:44:46;5.16;91.25
66835;HTU21D;53743;51.100;5.874;2024-03-07T05:45:47;5.16;91.36
66835;HTU21D;53743;51.100;5.874;2024-03-07T05:46:48;5.13;91.47
66835;HTU21D;53743;51.100;5.874;2024-03-07T05:47:51;5.15;91.34
66835;HTU21D;53743;51.100;5.874;2024-03-07T05:48:52;5.15;91.15
66835;HTU21D;53743;51.100;5.874;2024-03-07T05:49:56;5.11;91.16
66835;HTU21D;53743;51.100;5.874;2024-03-07T05:50:59;5.06;91.43
66835;HTU21D;53743;51.100;5.874;2024-03-07T05:52:00;5.04;91.26
66835;HTU21D;53743;51.100;5.874;2024-03-07T05:53:03;5.02;91.34
66835;HTU21D;53743;51.100;5.874;2024-03-07T05:54:05;5.00;91.51
66835;HTU21D;53743;51.100;5.874;2024-03-07T05:55:07;5.01;91.60
66835;HTU21D;53743;51.100;5.874;2024-03-07T05:56:11;5.03;91.36
66835;HTU21D;53743;51.100;5.874;2024-03-07T05:57:12;5.03;91.24
66835;HTU21D;53743;51.100;5.874;2024-03-07T05:58:14;4.98;91.11
66835;HTU21D;53743;51.100;5.874;2024-03-07T05:59:17;4.96;91.39
66835;HTU21D;53743;51.100;5.874;2024-03-07T06:00:19;4.96;91.41
66835;HTU21D;53743;51.100;5.874;2024-03-07T06:01:27;4.97;91.43
66835;HTU21D;53743;51.100;5.874;2024-03-07T06:02:29;4.95;91.10
66835;HTU21D;53743;51.100;5.874;2024-03-07T06:03:30;4.93;91.39
66835;HTU21D;53743;51.100;5.874;2024-03-07T06:04:32;4.92;91.47
66835;HTU21D;53743;51.100;5.874;2024-03-07T06:05:34;4.93;91.44
66835;HTU21D;53743;51.100;5.874;2024-03-07T06:06:37;4.90;91.53
66835;HTU21D;53743;51.100;5.874;2024-03-07T06:07:38;4.90;91.59
66835;HTU21D;53743;51.100;5.874;2024-03-07T06:08:40;4.89;91.59
66835;HTU21D;53743;51.100;5.874;2024-03-07T06:09:43;4.88;91.58
66835;HTU21D;53743;51.100;5.874;2024-03-07T06:10:46;4.88;91.54
66835;HTU21D;53743;51.100;5.874;2024-03-07T06:11:48;4.84;91.58
66835;HTU21D;53743;51.100;5.874;2024-03-07T06:12:51;4.83;91.82
66835;HTU21D;53743;51.100;5.874;2024-03-07T06:13:52;4.81;91.73
66835;HTU21D;53743;51.100;5.874;2024-03-07T06:14:55;4.80;91.77
66835;HTU21D;53743;51.100;5.874;2024-03-07T06:15:56;4.79;92.00
66835;HTU21D;53743;51.100;5.874;2024-03-07T06:16:57;4.80;91.93
66835;HTU21D;53743;51.100;5.874;2024-03-07T06:17:59;4.80;91.98
66835;HTU21D;53743;51.100;5.874;2024-03-07T06:19:01;4.82;92.01
66835;HTU21D;53743;51.100;5.874;2024-03-07T06:20:06;4.80;92.12
66835;HTU21D;53743;51.100;5.874;2024-03-07T06:21:21;4.80;92.22
66835;HTU21D;53743;51.100;5.874;2024-03-07T06:22:23;4.81;92.18
66835;HTU21D;53743;51.100;5.874;2024-03-07T06:23:24;4.78;92.34
66835;HTU21D;53743;51.100;5.874;2024-03-07T06:24:29;4.77;92.46
66835;HTU21D;53743;51.100;5.874;2024-03-07T06:25:32;4.78;92.57
66835;HTU21D;53743;51.100;5.874;2024-03-07T06:26:38;4.79;92.69
66835;HTU21D;53743;51.100;5.874;2024-03-07T06:27:46;4.80;92.64
66835;HTU21D;53743;51.100;5.874;2024-03-07T06:28:49;4.79;92.63
66835;HTU21D;53743;51.100;5.874;2024-03-07T06:29:50;4.80;92.76
66835;HTU21D;53743;51.100;5.874;2024-03-07T06:30:55;4.80;92.70
66835;HTU21D;53743;51.100;5.874;2024-03-07T06:31:56;4.83;92.99
66835;HTU21D;53743;51.100;5.874;2024-03-07T06:32:59;4.84;92.80